Time;durP1;ratioP1;P1;durP2;ratioP2;P2;SDS_P1;SDS_P2;PMS_P1;PMS_P2;Temp;Humidity;BMP_temperature;BMP_pressure;BME280_temperature;BME280_humidity;BME280_pressure;Samples;Min_cycle;Max_cycle;Signal;HPM_P1;HPM_P2
2023/11/26 00:00:49;;;;;;;38.00;20.90;;;;;;;0.00;76.83;97606.01;108503;1255;95367;-72
2023/11/26 00:03:37;;;;;;;40.50;20.90;;;;;;;-0.01;76.81;97602.00;108406;1256;107119;-72
2023/11/26 00:06:05;;;;;;;41.60;23.20;;;;;;;0.02;76.88;97601.86;108435;1256;94386;-74
2023/11/26 00:08:34;;;;;;;40.50;21.70;;;;;;;0.02;76.97;97600.65;108477;1256;94723;-75
2023/11/26 00:11:02;;;;;;;39.40;21.20;;;;;;;0.04;76.91;97601.45;108330;1256;109477;-77
2023/11/26 00:13:29;;;;;;;41.90;21.70;;;;;;;0.04;76.84;97605.58;108479;1256;96887;-73
2023/11/26 00:15:58;;;;;;;40.20;22.30;;;;;;;0.04;76.89;97606.81;108238;1256;107584;-74
2023/11/26 00:18:28;;;;;;;44.40;23.70;;;;;;;0.03;76.84;97608.23;108438;1256;94247;-72
2023/11/26 00:20:56;;;;;;;41.30;23.50;;;;;;;0.03;76.93;97609.50;108413;1256;94233;-73
2023/11/26 00:23:23;;;;;;;40.30;22.70;;;;;;;0.04;76.93;97608.40;108414;1256;110013;-72
2023/11/26 00:25:51;;;;;;;42.00;22.30;;;;;;;0.05;76.86;97609.58;108318;1256;95388;-74
2023/11/26 00:28:19;;;;;;;37.10;20.90;;;;;;;0.05;76.99;97608.20;108416;1256;107761;-75
2023/11/26 00:30:47;;;;;;;40.00;22.30;;;;;;;0.04;76.74;97605.41;108417;1256;94424;-73
2023/11/26 00:33:18;;;;;;;39.20;20.90;;;;;;;0.03;76.84;97608.60;108473;1256;94352;-72
2023/11/26 00:35:46;;;;;;;41.70;21.10;;;;;;;0.05;76.92;97607.98;108373;1256;109076;-73
2023/11/26 00:38:14;;;;;;;39.50;22.30;;;;;;;0.05;76.94;97609.58;108309;1256;95226;-76
2023/11/26 00:40:43;;;;;;;38.30;21.70;;;;;;;0.01;77.02;97611.67;108191;1257;106774;-72
2023/11/26 00:43:11;;;;;;;37.40;21.30;;;;;;;0.01;77.02;97617.80;108440;1256;94514;-73
2023/11/26 00:45:43;;;;;;;39.30;21.90;;;;;;;0.01;77.11;97623.89;108438;1256;94622;-73
2023/11/26 00:48:11;;;;;;;42.90;23.10;;;;;;;0.00;76.98;97624.64;108331;1256;109877;-73
2023/11/26 00:50:39;;;;;;;41.10;22.20;;;;;;;-0.01;76.98;97616.52;108450;1256;95427;-74
2023/11/26 00:53:07;;;;;;;41.50;22.20;;;;;;;-0.00;76.90;97620.13;108364;1256;107280;-73
2023/11/26 00:55:35;;;;;;;40.50;22.70;;;;;;;0.01;77.04;97626.36;108415;1256;94978;-75
2023/11/26 00:58:02;;;;;;;39.40;22.20;;;;;;;0.01;77.10;97628.44;108450;1255;94817;-73
2023/11/26 01:00:30;;;;;;;38.40;20.60;;;;;;;0.00;77.02;97627.06;108463;1256;109935;-73
2023/11/26 01:02:58;;;;;;;37.70;20.90;;;;;;;0.00;77.02;97628.99;108432;1256;95373;-73
2023/11/26 01:05:26;;;;;;;40.00;21.50;;;;;;;-0.02;76.97;97623.70;108407;1256;107493;-75
2023/11/26 01:07:54;;;;;;;41.70;21.70;;;;;;;-0.03;76.97;97617.83;108444;1256;94293;-73
2023/11/26 01:10:22;;;;;;;40.80;23.40;;;;;;;-0.03;77.14;97620.64;108448;1256;94602;-73
2023/11/26 01:12:50;;;;;;;51.20;30.80;;;;;;;-0.06;76.94;97615.34;108430;1256;107971;-75
2023/11/26 01:15:18;;;;;;;39.30;23.10;;;;;;;-0.06;77.13;97616.59;108424;1256;95517;-79
2023/11/26 01:17:47;;;;;;;38.50;20.50;;;;;;;-0.06;77.09;97617.11;108451;1256;106339;-73
2023/11/26 01:20:15;;;;;;;37.00;20.40;;;;;;;-0.07;77.02;97618.02;108451;1256;95013;-75
2023/11/26 01:22:43;;;;;;;34.90;18.20;;;;;;;-0.10;77.07;97615.91;108358;1256;94290;-73
2023/11/26 01:25:11;;;;;;;32.00;16.40;;;;;;;-0.11;77.09;97610.42;108479;1256;109879;-74
2023/11/26 01:27:39;;;;;;;34.60;18.50;;;;;;;-0.13;77.01;97612.77;108429;1256;94586;-73
2023/11/26 01:30:08;;;;;;;34.60;18.80;;;;;;;-0.12;77.13;97612.40;108366;1256;106049;-74
2023/11/26 01:32:36;;;;;;;36.70;18.20;;;;;;;-0.12;77.20;97614.45;108417;1256;94579;-76
2023/11/26 01:35:04;;;;;;;37.90;17.70;;;;;;;-0.11;77.16;97615.13;108425;1256;94655;-74
2023/11/26 01:37:33;;;;;;;34.20;18.30;;;;;;;-0.10;77.25;97616.77;108252;1256;109770;-72
2023/11/26 01:40:01;;;;;;;33.20;17.60;;;;;;;-0.09;77.34;97611.67;108425;1256;95651;-71
2023/11/26 01:42:29;;;;;;;34.00;18.10;;;;;;;-0.06;77.25;97611.36;108384;1256;107813;-72
2023/11/26 01:44:57;;;;;;;35.30;18.80;;;;;;;-0.05;77.33;97612.34;108445;1256;94341;-70
2023/11/26 01:47:25;;;;;;;35.10;18.80;;;;;;;-0.04;77.28;97621.52;108389;1256;95150;-70
2023/11/26 01:49:53;;;;;;;35.60;18.80;;;;;;;-0.02;77.36;97621.92;108419;1256;109754;-73
2023/11/26 01:52:21;;;;;;;34.00;17.80;;;;;;;0.00;77.18;97618.37;108430;1256;94696;-72
2023/11/26 01:54:49;;;;;;;35.40;18.20;;;;;;;0.02;77.24;97618.08;108294;1256;106257;-72
2023/11/26 01:57:18;;;;;;;31.70;16.40;;;;;;;0.03;77.27;97614.55;108409;1256;94530;-72
2023/11/26 01:59:46;;;;;;;35.60;17.60;;;;;;;0.03;77.24;97607.75;108468;1256;94268;-76
2023/11/26 02:02:14;;;;;;;33.40;18.10;;;;;;;0.03;77.26;97609.14;108426;1256;110252;-72
2023/11/26 02:04:43;;;;;;;31.90;16.90;;;;;;;0.03;77.40;97606.71;108394;1257;95307;-72
2023/11/26 02:07:12;;;;;;;34.10;17.30;;;;;;;0.04;77.41;97605.61;108439;1256;107408;-71
2023/11/26 02:09:40;;;;;;;31.60;16.50;;;;;;;0.05;77.36;97599.30;108306;1256;94533;-72
2023/11/26 02:12:12;;;;;;;36.20;22.10;;;;;;;0.06;77.29;97594.34;108317;1256;94323;-75
2023/11/26 02:14:40;;;;;;;32.30;17.10;;;;;;;0.07;77.19;97596.91;108474;1256;108824;-71
2023/11/26 02:17:08;;;;;;;33.20;17.60;;;;;;;0.06;77.40;97596.96;108378;1256;96949;-71
2023/11/26 02:19:38;;;;;;;28.80;15.20;;;;;;;0.05;77.32;97592.84;108401;1256;107710;-72
2023/11/26 02:22:09;;;;;;;33.90;16.50;;;;;;;0.05;77.35;97592.81;108294;1257;94335;-72
2023/11/26 02:24:44;;;;;;;32.20;15.40;;;;;;;0.05;77.31;97587.08;108476;1256;94292;-72
2023/11/26 02:27:14;;;;;;;33.90;15.80;;;;;;;0.05;77.35;97588.27;108252;1256;110016;-72
2023/11/26 02:29:42;;;;;;;31.60;15.20;;;;;;;0.03;77.14;97596.57;108294;1256;95378;-72
2023/11/26 02:32:10;;;;;;;31.10;15.40;;;;;;;0.01;77.36;97597.89;108344;1256;107049;-71
2023/11/26 02:34:38;;;;;;;29.60;14.80;;;;;;;0.00;77.26;97600.59;108257;1256;95658;-72
2023/11/26 02:37:06;;;;;;;28.10;15.00;;;;;;;-0.01;77.36;97598.70;108401;1256;94841;-75
2023/11/26 02:39:34;;;;;;;25.40;13.60;;;;;;;-0.02;77.36;97600.35;108409;1256;109607;-72
2023/11/26 02:42:02;;;;;;;27.60;13.00;;;;;;;-0.03;77.41;97602.49;108468;1256;95375;-71
2023/11/26 02:44:30;;;;;;;26.00;12.30;;;;;;;-0.04;77.22;97608.14;108420;1256;107704;-72
2023/11/26 02:46:58;;;;;;;30.40;13.90;;;;;;;-0.06;77.33;97607.84;108449;1256;94197;-73
2023/11/26 02:49:26;;;;;;;27.50;13.00;;;;;;;-0.06;77.20;97612.56;108322;1257;94703;-71
2023/11/26 02:51:54;;;;;;;26.60;13.50;;;;;;;-0.08;77.29;97611.66;108424;1256;110033;-72
2023/11/26 02:54:23;;;;;;;26.90;12.00;;;;;;;-0.10;77.33;97612.95;108225;1256;222010;-72
2023/11/26 02:56:51;;;;;;;26.90;12.00;;;;;;;-0.14;77.25;97613.69;108437;1256;107546;-72
2023/11/26 02:59:19;;;;;;;27.00;11.50;;;;;;;-0.19;77.22;97619.52;108297;1256;94698;-77
2023/11/26 03:01:47;;;;;;;29.60;12.30;;;;;;;-0.23;77.23;97619.56;108518;1256;94321;-72
2023/11/26 03:04:19;;;;;;;27.40;13.20;;;;;;;-0.27;77.21;97620.45;108451;1256;109976;-71
2023/11/26 03:06:47;;;;;;;26.40;11.80;;;;;;;-0.30;77.39;97623.73;108434;1256;94774;-72
2023/11/26 03:12:53;;;;;;;25.60;13.00;;;;;;;-0.32;77.42;97617.23;108447;1256;107792;-72
2023/11/26 03:15:05;;;;;;;25.60;11.00;;;;;;;-0.34;77.30;97618.02;108427;1255;94330;-74
2023/11/26 03:17:33;;;;;;;22.70;10.10;;;;;;;-0.36;77.37;97626.16;108469;1256;110023;-72
2023/11/26 03:20:01;;;;;;;24.70;10.30;;;;;;;-0.39;77.31;97629.61;108493;1256;95584;-73
2023/11/26 03:22:29;;;;;;;23.20;10.50;;;;;;;-0.43;77.28;97627.56;108268;1257;107258;-73
2023/11/26 03:24:57;;;;;;;26.10;10.80;;;;;;;-0.47;77.29;97632.43;108476;1256;94283;-73
2023/11/26 03:27:25;;;;;;;24.70;10.80;;;;;;;-0.48;77.31;97635.64;108454;1256;94360;-72
2023/11/26 03:29:53;;;;;;;23.00;10.80;;;;;;;-0.50;77.28;97636.92;108473;1256;109996;-72
2023/11/26 03:32:20;;;;;;;24.90;11.00;;;;;;;-0.49;77.35;97639.52;108455;1257;95538;-72
2023/11/26 03:34:49;;;;;;;25.70;10.80;;;;;;;-0.51;77.30;97642.59;108433;1256;107671;-72
2023/11/26 03:37:22;;;;;;;26.00;11.10;;;;;;;-0.52;77.32;97643.33;108509;1256;94515;-73
2023/11/26 03:40:07;;;;;;;23.50;10.20;;;;;;;-0.51;77.37;97648.48;108549;1256;94275;-72
2023/11/26 03:42:36;;;;;;;25.90;11.30;;;;;;;-0.49;77.33;97651.87;108534;1256;109011;-73
2023/11/26 03:45:06;;;;;;;25.10;10.60;;;;;;;-0.49;77.35;97655.20;108456;1256;94423;-72
2023/11/26 03:47:34;;;;;;;22.30;10.20;;;;;;;-0.49;77.29;97658.13;108289;1256;107684;-72
2023/11/26 03:50:06;;;;;;;22.70;9.20;;;;;;;-0.49;77.19;97662.86;108475;1256;94736;-72
2023/11/26 03:52:38;;;;;;;21.50;8.50;;;;;;;-0.50;77.17;97662.23;108498;1256;94314;-76
2023/11/26 03:55:07;;;;;;;18.60;7.90;;;;;;;-0.51;77.01;97674.77;108340;1259;109223;-72
2023/11/26 03:57:36;;;;;;;18.70;7.50;;;;;;;-0.54;76.92;97681.39;108360;1260;95255;-73
2023/11/26 04:00:08;;;;;;;20.10;6.60;;;;;;;-0.55;76.60;97684.94;108396;1256;107666;-72
2023/11/26 04:02:41;;;;;;;16.90;6.50;;;;;;;-0.56;76.74;97697.01;108388;1256;94585;-72
2023/11/26 04:05:10;;;;;;;17.10;6.20;;;;;;;-0.61;76.40;97695.80;108303;1257;94332;-72
2023/11/26 04:07:38;;;;;;;16.10;6.10;;;;;;;-0.62;76.67;97695.71;108229;1256;110042;-72
2023/11/26 04:10:08;;;;;;;15.80;5.90;;;;;;;-0.63;76.36;97697.34;108526;1256;94945;-72
2023/11/26 04:12:39;;;;;;;16.40;6.20;;;;;;;-0.64;76.45;97709.20;108282;1256;107757;-72
2023/11/26 04:15:07;;;;;;;16.40;6.40;;;;;;;-0.67;76.16;97704.84;108454;1257;94577;-75
2023/11/26 04:17:36;;;;;;;14.10;6.10;;;;;;;-0.71;76.44;97708.15;108279;1256;94305;-71
2023/11/26 04:20:05;;;;;;;14.60;5.60;;;;;;;-0.71;76.55;97715.11;108475;1256;110013;-72
2023/11/26 04:22:34;;;;;;;8.90;4.20;;;;;;;-0.73;76.53;97717.81;108510;1256;95356;-72
2023/11/26 04:25:02;;;;;;;12.80;5.80;;;;;;;-0.74;76.53;97716.30;108492;1256;107818;-73
2023/11/26 04:27:30;;;;;;;12.80;5.20;;;;;;;-0.77;76.48;97723.40;108425;1260;94632;-71
2023/11/26 04:29:58;;;;;;;14.50;5.00;;;;;;;-0.80;76.64;97723.36;108542;1256;94251;-72
2023/11/26 04:32:26;;;;;;;11.90;4.80;;;;;;;-0.83;76.48;97722.50;108476;1256;109018;-72
2023/11/26 04:34:54;;;;;;;11.50;4.00;;;;;;;-0.86;76.56;97728.00;108481;1257;95516;-72
2023/11/26 04:37:22;;;;;;;12.00;4.90;;;;;;;-0.88;76.40;97731.06;108473;1256;106008;-72
2023/11/26 04:39:49;;;;;;;13.40;5.40;;;;;;;-0.91;76.43;97729.47;108341;1256;94627;-72
2023/11/26 04:42:17;;;;;;;19.60;7.60;;;;;;;-0.95;76.53;97732.61;108489;1256;94303;-72
2023/11/26 04:44:45;;;;;;;26.50;14.10;;;;;;;-0.97;76.35;97736.02;108467;1256;109894;-72
2023/11/26 04:47:13;;;;;;;38.20;22.80;;;;;;;-0.99;76.49;97738.54;108509;1256;95642;-72
2023/11/26 04:49:41;;;;;;;22.20;10.90;;;;;;;-1.01;76.65;97741.94;108447;1256;107769;-71
2023/11/26 04:52:09;;;;;;;19.20;8.00;;;;;;;-1.04;76.59;97745.91;108451;1256;94295;-73
2023/11/26 04:54:36;;;;;;;19.10;7.10;;;;;;;-1.08;76.49;97752.35;108450;1257;94259;-72
2023/11/26 04:57:04;;;;;;;31.70;11.30;;;;;;;-1.11;76.47;97753.17;108501;1256;109954;-72
2023/11/26 04:59:32;;;;;;;54.50;21.50;;;;;;;-1.13;76.49;97756.95;108322;1256;95401;-76
2023/11/26 05:02:05;;;;;;;42.00;16.30;;;;;;;-1.15;76.67;97764.00;108416;1257;107686;-72
2023/11/26 05:04:34;;;;;;;27.80;8.70;;;;;;;-1.16;76.37;97769.44;108357;1256;94586;-72
2023/11/26 05:07:03;;;;;;;21.40;7.90;;;;;;;-1.18;76.68;97775.24;108465;1256;94289;-72
2023/11/26 05:09:32;;;;;;;16.80;6.60;;;;;;;-1.19;76.50;97782.27;108378;1256;109897;-72
2023/11/26 05:12:01;;;;;;;23.30;9.20;;;;;;;-1.20;76.53;97783.17;108450;1256;94933;-72
2023/11/26 05:14:29;;;;;;;24.40;9.60;;;;;;;-1.22;76.55;97788.13;108436;1256;107637;-71
2023/11/26 05:16:57;;;;;;;26.20;11.00;;;;;;;-1.25;76.38;97790.88;108417;1256;94307;-72
2023/11/26 05:19:25;;;;;;;24.30;10.10;;;;;;;-1.29;76.25;97802.74;108422;1256;94270;-72
2023/11/26 05:21:53;;;;;;;23.00;10.00;;;;;;;-1.33;76.23;97803.95;108485;1256;109937;-72
2023/11/26 05:24:21;;;;;;;21.30;8.60;;;;;;;-1.38;76.36;97805.16;108418;1256;95702;-72
2023/11/26 05:26:49;;;;;;;23.00;8.60;;;;;;;-1.38;76.40;97804.52;108432;1256;107137;-75
2023/11/26 05:29:19;;;;;;;23.80;10.10;;;;;;;-1.40;76.64;97809.44;108449;1256;94272;-77
2023/11/26 05:31:47;;;;;;;21.70;8.60;;;;;;;-1.41;76.51;97814.39;108460;1256;94258;-73
2023/11/26 05:34:15;;;;;;;21.80;9.60;;;;;;;-1.46;76.58;97818.60;108448;1259;108417;-71
2023/11/26 05:36:43;;;;;;;21.70;9.00;;;;;;;-1.50;76.58;97817.20;108399;1256;95064;-75
2023/11/26 05:39:13;;;;;;;25.80;10.90;;;;;;;-1.52;76.70;97823.90;108429;1256;107589;-72
2023/11/26 05:41:42;;;;;;;23.50;10.10;;;;;;;-1.55;76.51;97826.45;108416;1260;94215;-72
2023/11/26 05:44:10;;;;;;;22.30;10.40;;;;;;;-1.57;76.48;97832.11;108367;1256;94671;-71
2023/11/26 05:46:42;;;;;;;23.80;10.20;;;;;;;-1.59;76.52;97835.33;108513;1256;110743;-74
2023/11/26 05:49:09;;;;;;;24.60;10.50;;;;;;;-1.62;76.55;97840.16;108486;1256;94364;-72
2023/11/26 05:51:37;;;;;;;26.50;11.20;;;;;;;-1.66;76.35;97845.34;108305;1256;107391;-71
2023/11/26 05:54:06;;;;;;;26.20;11.20;;;;;;;-1.69;76.47;97847.73;108268;1256;94326;-72
2023/11/26 05:56:36;;;;;;;27.30;12.40;;;;;;;-1.73;76.48;97845.66;108530;1256;94892;-72
2023/11/26 05:59:04;;;;;;;30.90;13.60;;;;;;;-1.81;76.31;97844.40;108479;1256;110055;-72
2023/11/26 06:01:33;;;;;;;27.60;13.00;;;;;;;-1.86;76.32;97849.67;108439;1256;95778;-71
2023/11/26 06:04:01;;;;;;;30.70;12.80;;;;;;;-1.92;76.18;97853.05;108259;1257;107734;-72
2023/11/26 06:06:29;;;;;;;32.00;14.10;;;;;;;-1.98;76.27;97853.11;108294;1258;94311;-73
2023/11/26 06:08:57;;;;;;;31.50;13.70;;;;;;;-2.03;76.44;97852.08;108346;1257;94732;-72
2023/11/26 06:11:25;;;;;;;41.10;19.40;;;;;;;-2.04;76.43;97852.33;108401;1256;108953;-75
2023/11/26 06:13:52;;;;;;;49.00;21.40;;;;;;;-2.05;76.42;97856.38;108421;1258;95596;-72
2023/11/26 06:16:20;;;;;;;46.60;21.30;;;;;;;-2.05;76.38;97854.42;108363;1256;107682;-73
2023/11/26 06:18:48;;;;;;;55.00;21.60;;;;;;;-2.03;76.50;97866.16;108358;1256;94327;-75
2023/11/26 06:21:16;;;;;;;43.80;18.30;;;;;;;-2.02;76.34;97869.27;108452;1256;94575;-74
2023/11/26 06:23:47;;;;;;;34.20;14.70;;;;;;;-2.01;76.55;97871.65;108356;1257;109506;-73
2023/11/26 06:26:19;;;;;;;32.80;13.70;;;;;;;-2.02;76.51;97874.79;108453;1256;95256;-72
2023/11/26 06:28:47;;;;;;;31.60;12.30;;;;;;;-2.03;76.57;97879.34;108457;1256;107063;-72
2023/11/26 06:31:21;;;;;;;29.20;13.40;;;;;;;-2.01;76.65;97880.35;108421;1256;95520;-72
2023/11/26 06:33:49;;;;;;;27.40;10.50;;;;;;;-1.99;76.79;97885.83;108460;1258;94254;-73
2023/11/26 06:36:19;;;;;;;22.00;9.00;;;;;;;-1.95;76.52;97888.25;108345;1256;109386;-73
2023/11/26 06:38:47;;;;;;;24.40;10.20;;;;;;;-1.91;76.70;97890.20;108254;1256;95514;-73
2023/11/26 06:41:21;;;;;;;24.10;10.70;;;;;;;-1.87;76.80;97892.44;108325;1256;107766;-72
2023/11/26 06:43:53;;;;;;;27.20;11.20;;;;;;;-1.82;76.81;97893.79;108404;1257;94504;-76
2023/11/26 06:46:58;;;;;;;26.00;11.30;;;;;;;-1.79;76.50;97894.91;108149;1256;94634;-76
2023/11/26 06:49:52;;;;;;;28.80;11.00;;;;;;;-1.75;76.76;97899.95;108259;1256;110229;-76
2023/11/26 06:52:51;;;;;;;20.80;8.20;;;;;;;-1.71;76.43;97904.32;108301;1256;96800;-77
2023/11/26 06:55:51;;;;;;;19.70;7.60;;;;;;;-1.68;76.52;97908.71;108301;1257;109972;-76
2023/11/26 06:58:48;;;;;;;20.20;8.30;;;;;;;-1.66;76.27;97907.76;108233;1256;94533;-78
2023/11/26 07:01:42;;;;;;;23.20;9.60;;;;;;;-1.63;76.55;97903.31;108445;1256;94586;-79
2023/11/26 07:04:11;;;;;;;22.40;9.50;;;;;;;-1.59;76.26;97896.69;108248;1257;109817;-80
2023/11/26 07:06:40;;;;;;;22.60;11.30;;;;;;;-1.56;76.56;97899.86;108221;1256;95185;-78
2023/11/26 07:09:11;;;;;;;25.80;10.90;;;;;;;-1.52;76.51;97905.25;108202;1261;107734;-80
2023/11/26 07:11:39;;;;;;;25.00;12.60;;;;;;;-1.49;76.51;97905.83;108197;1257;94683;-79
2023/11/26 07:14:08;;;;;;;22.70;9.60;;;;;;;-1.46;76.54;97901.20;108240;1257;94709;-79
2023/11/26 07:16:40;;;;;;;21.90;8.90;;;;;;;-1.46;76.49;97903.79;108360;1256;110417;-79
2023/11/26 07:19:25;;;;;;;28.60;9.60;;;;;;;-1.47;76.41;97899.52;108295;1256;95300;-79
2023/11/26 07:21:55;;;;;;;46.20;23.00;;;;;;;-1.48;76.41;97897.46;108433;1256;108050;-79
2023/11/26 07:24:23;;;;;;;50.70;21.60;;;;;;;-1.47;76.50;97895.52;108328;1262;94381;-79
2023/11/26 07:26:52;;;;;;;36.80;17.90;;;;;;;-1.45;76.41;97900.10;108311;1257;94262;-79
2023/11/26 07:29:20;;;;;;;33.90;18.60;;;;;;;-1.43;76.51;97905.91;108311;1256;110019;-79
2023/11/26 07:31:52;;;;;;;75.10;47.80;;;;;;;-1.41;76.49;97909.83;108445;1256;94377;-79
2023/11/26 07:34:21;;;;;;;105.80;50.50;;;;;;;-1.39;76.57;97911.48;108461;1257;107622;-80
2023/11/26 07:36:51;;;;;;;114.10;47.90;;;;;;;-1.39;76.32;97911.66;108205;1263;94289;-79
2023/11/26 07:39:28;;;;;;;71.10;38.30;;;;;;;-1.35;76.38;97909.08;108311;1256;94509;-79
2023/11/26 07:42:00;;;;;;;78.00;49.90;;;;;;;-1.33;76.47;97912.14;108271;1256;109747;-79
2023/11/26 07:44:31;;;;;;;40.10;21.10;;;;;;;-1.30;76.53;97916.70;108280;1256;95517;-79
2023/11/26 07:47:05;;;;;;;26.30;13.60;;;;;;;-1.29;76.62;97917.17;108331;1256;107667;-80
2023/11/26 07:49:36;;;;;;;23.40;12.70;;;;;;;-1.28;76.58;97919.38;108244;1256;94347;-80
2023/11/26 07:52:07;;;;;;;19.30;9.00;;;;;;;-1.28;76.55;97917.65;108275;1256;94616;-77
2023/11/26 07:54:38;;;;;;;25.50;13.10;;;;;;;-1.29;76.40;97917.73;108250;1258;108609;-76
2023/11/26 07:57:15;;;;;;;25.10;10.80;;;;;;;-1.29;76.57;97917.87;108290;1257;95550;-76
2023/11/26 07:59:51;;;;;;;25.40;11.80;;;;;;;-1.29;76.39;97918.72;108352;1258;107634;-77
2023/11/26 08:02:31;;;;;;;35.10;19.80;;;;;;;-1.30;76.44;97918.78;108315;1256;94557;-76
2023/11/26 08:05:00;;;;;;;29.70;16.30;;;;;;;-1.27;76.43;97923.84;108438;1256;94740;-76
2023/11/26 08:07:32;;;;;;;35.90;18.90;;;;;;;-1.23;76.54;97923.52;108356;1257;109535;-75
2023/11/26 08:10:18;;;;;;;57.10;23.60;;;;;;;-1.21;76.41;97922.73;108286;1257;95705;-74
2023/11/26 08:12:50;;;;;;;159.40;51.30;;;;;;;-1.22;76.38;97924.48;108300;1257;107931;-71
2023/11/26 08:15:20;;;;;;;76.50;27.30;;;;;;;-1.23;76.43;97923.84;108287;1257;97310;-77
2023/11/26 08:17:51;;;;;;;37.30;16.20;;;;;;;-1.23;76.52;97922.61;108433;1256;94547;-71
2023/11/26 08:20:20;;;;;;;26.10;11.50;;;;;;;-1.21;76.46;97926.19;108398;1257;109593;-76
2023/11/26 08:22:51;;;;;;;63.00;26.10;;;;;;;-1.19;76.42;97928.02;108430;1260;95104;-71
2023/11/26 08:25:23;;;;;;;65.00;27.70;;;;;;;-1.16;76.41;97931.05;108334;1260;107336;-73
2023/11/26 08:27:51;;;;;;;82.50;33.10;;;;;;;-1.14;76.77;97934.63;108395;1258;94613;-75
2023/11/26 08:30:31;;;;;;;53.10;21.10;;;;;;;-1.14;76.61;97932.52;108416;1260;94307;-72
2023/11/26 08:33:02;;;;;;;31.50;13.90;;;;;;;-1.09;76.43;97939.26;108356;1260;109930;-72
2023/11/26 08:35:29;;;;;;;28.50;13.60;;;;;;;-1.08;76.49;97938.73;108434;1256;95223;-72
2023/11/26 08:38:00;;;;;;;19.50;8.70;;;;;;;-1.06;76.68;97938.08;108370;1260;107691;-72
2023/11/26 08:40:35;;;;;;;22.10;8.90;;;;;;;-1.04;76.37;97941.86;108204;1257;94721;-71
2023/11/26 08:43:04;;;;;;;36.60;15.40;;;;;;;-1.03;76.61;97937.64;108243;1263;94263;-72
2023/11/26 08:45:32;;;;;;;30.60;12.40;;;;;;;-1.02;76.60;97941.77;108338;1257;110622;-71
2023/11/26 08:48:00;;;;;;;24.10;9.60;;;;;;;-1.03;76.48;97939.02;108222;1258;94356;-74
2023/11/26 08:50:28;;;;;;;20.40;8.80;;;;;;;-1.03;76.42;97940.92;108302;1261;107683;-72
2023/11/26 08:52:56;;;;;;;23.10;10.60;;;;;;;-1.03;76.40;97937.63;108310;1258;94514;-72
2023/11/26 08:55:24;;;;;;;24.10;9.60;;;;;;;-1.03;76.28;97938.84;108412;1256;94334;-71
2023/11/26 08:57:52;;;;;;;25.70;9.70;;;;;;;-1.03;76.24;97936.58;108231;1257;109965;-76
2023/11/26 09:00:20;;;;;;;26.10;10.60;;;;;;;-1.03;76.25;97939.18;108436;1256;94646;-73
2023/11/26 09:02:48;;;;;;;20.80;9.80;;;;;;;-1.01;76.25;97941.73;108409;1257;107305;-73
2023/11/26 09:05:16;;;;;;;18.70;7.20;;;;;;;-1.02;76.27;97946.30;108437;1257;94293;-71
2023/11/26 09:07:45;;;;;;;20.70;8.20;;;;;;;-0.99;76.34;97951.54;108375;1257;94367;-70
2023/11/26 09:10:13;;;;;;;22.40;9.40;;;;;;;-0.98;76.36;97954.30;108304;1257;109955;-71
2023/11/26 09:12:41;;;;;;;19.70;8.50;;;;;;;-0.99;76.14;97952.77;108303;1256;95347;-70
2023/11/26 09:15:10;;;;;;;19.90;7.80;;;;;;;-0.99;76.26;97950.82;108375;1257;107516;-70
2023/11/26 09:17:38;;;;;;;22.50;9.30;;;;;;;-0.96;76.33;97955.23;108420;1256;94707;-70
2023/11/26 09:20:11;;;;;;;25.60;10.10;;;;;;;-0.94;76.38;97954.63;108480;1257;94558;-72
2023/11/26 09:22:39;;;;;;;23.00;9.40;;;;;;;-0.95;76.23;97953.64;108358;1260;109395;-71
2023/11/26 09:25:09;;;;;;;25.10;11.00;;;;;;;-0.96;76.20;97955.73;108376;1256;95325;-74
2023/11/26 09:27:37;;;;;;;30.20;12.90;;;;;;;-0.95;76.33;97958.67;108247;1257;107750;-71
2023/11/26 09:30:05;;;;;;;22.40;9.80;;;;;;;-0.94;76.14;97962.77;108344;1257;95027;-71
2023/11/26 09:32:34;;;;;;;24.30;10.80;;;;;;;-0.92;76.21;97961.84;108381;1257;94808;-72
2023/11/26 09:35:02;;;;;;;15.40;6.80;;;;;;;-0.91;75.97;97962.70;108470;1257;109457;-72
2023/11/26 09:37:30;;;;;;;20.60;8.10;;;;;;;-0.95;75.96;97964.06;108377;1257;94286;-72
2023/11/26 09:39:58;;;;;;;23.30;9.70;;;;;;;-0.94;76.30;97965.92;108331;1256;107737;-72
2023/11/26 09:42:26;;;;;;;24.40;10.00;;;;;;;-0.89;76.31;97970.25;108362;1257;94555;-74
2023/11/26 09:44:56;;;;;;;21.90;10.20;;;;;;;-0.87;76.22;97972.07;108196;1258;94371;-70
2023/11/26 09:47:26;;;;;;;28.80;13.90;;;;;;;-0.84;76.20;97974.42;108317;1257;109545;-70
2023/11/26 09:49:54;;;;;;;30.20;11.00;;;;;;;-0.82;76.20;97975.20;108179;1257;95665;-70
2023/11/26 09:52:24;;;;;;;26.20;9.60;;;;;;;-0.83;76.18;97978.86;108268;1257;107651;-71
2023/11/26 09:54:56;;;;;;;37.60;18.80;;;;;;;-0.84;76.35;97979.27;108297;1258;94330;-70
2023/11/26 09:57:26;;;;;;;35.00;16.10;;;;;;;-0.84;76.31;97981.38;108305;1257;94268;-70
2023/11/26 09:59:54;;;;;;;27.60;12.30;;;;;;;-0.84;76.17;97983.61;108250;1258;109923;-70
2023/11/26 10:02:21;;;;;;;25.10;10.00;;;;;;;-0.85;76.19;97988.02;108373;1257;96503;-71
2023/11/26 10:04:51;;;;;;;24.90;11.00;;;;;;;-0.86;76.21;97987.88;108211;1257;107110;-74
2023/11/26 10:07:33;;;;;;;24.10;10.50;;;;;;;-0.85;76.21;97991.50;108301;1257;94431;-75
2023/11/26 10:10:03;;;;;;;33.30;12.90;;;;;;;-0.85;76.23;97990.98;108321;1257;94509;-72
2023/11/26 10:12:48;;;;;;;31.40;13.80;;;;;;;-0.84;76.28;97995.98;108338;1258;109988;-72
2023/11/26 10:15:16;;;;;;;33.00;14.10;;;;;;;-0.84;76.25;97993.37;108395;1257;95582;-75
2023/11/26 10:17:58;;;;;;;31.90;12.00;;;;;;;-0.81;76.31;97998.48;108322;1257;106485;-70
2023/11/26 10:20:27;;;;;;;26.60;9.50;;;;;;;-0.79;76.30;97999.04;108198;1260;94820;-72
2023/11/26 10:22:56;;;;;;;32.10;14.20;;;;;;;-0.77;76.37;98001.60;108347;1257;94504;-70
2023/11/26 10:25:24;;;;;;;29.70;12.70;;;;;;;-0.74;76.26;97999.70;108185;1257;111170;-71
2023/11/26 10:27:55;;;;;;;33.50;14.00;;;;;;;-0.72;76.31;97996.69;108266;1256;95687;-72
2023/11/26 10:30:32;;;;;;;33.90;17.30;;;;;;;-0.68;76.37;97995.63;108199;1257;107196;-71
2023/11/26 10:33:05;;;;;;;41.50;20.60;;;;;;;-0.64;76.34;97998.08;108270;1257;94562;-70
2023/11/26 10:35:50;;;;;;;41.20;22.90;;;;;;;-0.65;76.31;98000.39;108193;1257;94378;-71
2023/11/26 10:38:34;;;;;;;45.40;28.60;;;;;;;-0.67;76.30;98000.64;108295;1256;110673;-71
2023/11/26 10:41:03;;;;;;;39.00;21.60;;;;;;;-0.66;76.30;98004.42;108258;1257;95588;-74
2023/11/26 10:43:35;;;;;;;33.10;18.80;;;;;;;-0.65;76.24;98001.23;108371;1256;106241;-71
2023/11/26 10:46:15;;;;;;;36.90;16.00;;;;;;;-0.68;76.12;97998.06;108355;1256;94441;-71
2023/11/26 10:48:51;;;;;;;46.10;23.00;;;;;;;-0.70;76.18;98000.95;108394;1256;94818;-72
2023/11/26 10:51:24;;;;;;;39.00;18.40;;;;;;;-0.71;76.20;97998.55;108309;1257;109391;-77
2023/11/26 10:54:10;;;;;;;48.20;25.80;;;;;;;-0.71;76.41;98004.28;108310;1257;95600;-77
2023/11/26 10:56:40;;;;;;;41.40;23.70;;;;;;;-0.70;76.37;98006.88;108247;1256;106704;-71
2023/11/26 10:59:12;;;;;;;35.60;17.50;;;;;;;-0.65;76.44;98011.38;108319;1256;94947;-76
2023/11/26 11:03:35;;;;;;;31.60;16.30;;;;;;;-0.62;76.17;98016.28;102403;1292;636347;-71
2023/11/26 11:06:05;;;;;;;24.80;12.70;;;;;;;-0.66;76.28;98009.31;104802;1267;94312;-71
2023/11/26 11:08:38;;;;;;;61.10;25.70;;;;;;;-0.63;76.53;98015.98;104914;1264;94271;-72
2023/11/26 11:11:34;;;;;;;30.70;12.00;;;;;;;-0.62;76.23;98021.66;104645;1269;106826;-70
2023/11/26 11:14:02;;;;;;;62.20;27.00;;;;;;;-0.62;76.37;98027.06;105120;1263;95635;-74
2023/11/26 11:16:30;;;;;;;110.90;51.30;;;;;;;-0.59;76.41;98028.67;105315;1260;131320;-72
2023/11/26 11:18:58;;;;;;;72.40;31.70;;;;;;;-0.55;76.21;98030.06;105234;1261;95125;-71
2023/11/26 11:21:26;;;;;;;43.90;17.90;;;;;;;-0.52;76.48;98035.67;105481;1255;94838;-72
2023/11/26 11:23:55;;;;;;;32.10;12.80;;;;;;;-0.50;76.15;98035.96;105229;1273;107227;-70
2023/11/26 11:26:25;;;;;;;39.70;16.70;;;;;;;-0.53;76.37;98031.88;105517;1258;95747;-70
2023/11/26 11:28:56;;;;;;;43.40;16.90;;;;;;;-0.55;76.09;98033.01;105503;1260;106418;-71